sensor_id;sensor_type;location;lat;lon;timestamp;noise_LAeq;noise_LA_min;noise_LA_max;noise_LA01;noise_LA95
58251;Laerm;51449;51.676;5.812;2023-12-20T00:01:05;50.86;48.13;58.92;;
58251;Laerm;51449;51.676;5.812;2023-12-20T00:03:27;51.06;48.60;59.09;;
58251;Laerm;51449;51.676;5.812;2023-12-20T00:05:54;50.79;48.19;59.47;;
58251;Laerm;51449;51.676;5.812;2023-12-20T00:08:17;50.58;48.13;58.12;;
58251;Laerm;51449;51.676;5.812;2023-12-20T00:10:39;50.00;47.81;57.77;;
58251;Laerm;51449;51.676;5.812;2023-12-20T00:13:00;49.87;47.60;57.48;;
58251;Laerm;51449;51.676;5.812;2023-12-20T00:15:22;50.08;48.09;57.32;;
58251;Laerm;51449;51.676;5.812;2023-12-20T00:17:44;50.25;48.46;56.83;;
58251;Laerm;51449;51.676;5.812;2023-12-20T00:20:07;50.13;47.93;57.12;;
58251;Laerm;51449;51.676;5.812;2023-12-20T00:22:29;50.13;47.88;56.85;;
58251;Laerm;51449;51.676;5.812;2023-12-20T00:24:50;50.08;47.63;56.91;;
58251;Laerm;51449;51.676;5.812;2023-12-20T00:27:12;50.07;48.11;56.55;;
58251;Laerm;51449;51.676;5.812;2023-12-20T00:29:34;49.54;47.76;56.46;;
58251;Laerm;51449;51.676;5.812;2023-12-20T00:31:56;49.56;47.72;56.21;;
58251;Laerm;51449;51.676;5.812;2023-12-20T00:34:17;49.75;47.80;57.69;;
58251;Laerm;51449;51.676;5.812;2023-12-20T00:36:39;49.96;48.07;58.12;;
58251;Laerm;51449;51.676;5.812;2023-12-20T00:39:02;50.40;48.27;58.73;;
58251;Laerm;51449;51.676;5.812;2023-12-20T00:41:24;50.69;48.04;58.49;;
58251;Laerm;51449;51.676;5.812;2023-12-20T00:43:45;50.66;48.09;58.30;;
58251;Laerm;51449;51.676;5.812;2023-12-20T00:46:08;50.36;47.85;58.85;;
58251;Laerm;51449;51.676;5.812;2023-12-20T00:48:30;49.93;47.96;59.06;;
58251;Laerm;51449;51.676;5.812;2023-12-20T00:50:53;50.03;47.96;58.77;;
58251;Laerm;51449;51.676;5.812;2023-12-20T00:53:14;49.75;47.84;52.13;;
58251;Laerm;51449;51.676;5.812;2023-12-20T00:55:36;49.68;47.99;52.46;;
58251;Laerm;51449;51.676;5.812;2023-12-20T00:57:58;49.96;47.89;52.59;;
58251;Laerm;51449;51.676;5.812;2023-12-20T01:00:21;50.05;47.77;52.24;;
58251;Laerm;51449;51.676;5.812;2023-12-20T01:02:43;49.85;48.05;52.34;;
58251;Laerm;51449;51.676;5.812;2023-12-20T01:05:05;49.82;48.07;51.88;;
58251;Laerm;51449;51.676;5.812;2023-12-20T01:07:28;49.85;48.20;52.12;;
58251;Laerm;51449;51.676;5.812;2023-12-20T01:09:50;49.69;47.73;52.16;;
58251;Laerm;51449;51.676;5.812;2023-12-20T01:12:12;49.69;48.00;52.11;;
58251;Laerm;51449;51.676;5.812;2023-12-20T01:14:34;49.59;47.58;51.74;;
58251;Laerm;51449;51.676;5.812;2023-12-20T01:16:56;49.68;47.83;52.49;;
58251;Laerm;51449;51.676;5.812;2023-12-20T01:19:18;49.86;48.13;52.42;;
58251;Laerm;51449;51.676;5.812;2023-12-20T01:21:40;49.75;47.80;52.06;;
58251;Laerm;51449;51.676;5.812;2023-12-20T01:24:02;49.79;47.98;52.15;;
58251;Laerm;51449;51.676;5.812;2023-12-20T01:26:24;49.90;48.21;52.06;;
58251;Laerm;51449;51.676;5.812;2023-12-20T01:28:45;49.96;48.09;52.25;;
58251;Laerm;51449;51.676;5.812;2023-12-20T01:31:08;50.04;47.87;52.18;;
58251;Laerm;51449;51.676;5.812;2023-12-20T01:33:30;50.08;48.36;52.26;;
58251;Laerm;51449;51.676;5.812;2023-12-20T01:35:52;51.37;48.30;65.26;;
58251;Laerm;51449;51.676;5.812;2023-12-20T01:38:14;51.73;48.74;60.17;;
58251;Laerm;51449;51.676;5.812;2023-12-20T01:40:35;51.67;48.21;58.10;;
58251;Laerm;51449;51.676;5.812;2023-12-20T01:43:08;53.26;47.89;61.95;;
58251;Laerm;51449;51.676;5.812;2023-12-20T01:45:31;53.88;48.15;62.11;;
58251;Laerm;51449;51.676;5.812;2023-12-20T01:47:55;51.51;47.90;61.24;;
58251;Laerm;51449;51.676;5.812;2023-12-20T01:50:17;51.44;47.73;59.89;;
58251;Laerm;51449;51.676;5.812;2023-12-20T01:52:43;50.81;47.98;59.62;;
58251;Laerm;51449;51.676;5.812;2023-12-20T01:55:06;50.96;47.92;59.27;;
58251;Laerm;51449;51.676;5.812;2023-12-20T01:57:34;51.73;47.79;60.37;;
58251;Laerm;51449;51.676;5.812;2023-12-20T01:59:56;51.31;48.02;61.33;;
58251;Laerm;51449;51.676;5.812;2023-12-20T02:02:18;51.09;47.75;59.94;;
58251;Laerm;51449;51.676;5.812;2023-12-20T02:04:41;51.43;48.05;59.73;;
58251;Laerm;51449;51.676;5.812;2023-12-20T02:07:03;51.18;48.26;55.70;;
58251;Laerm;51449;51.676;5.812;2023-12-20T02:09:27;50.97;48.07;58.54;;
58251;Laerm;51449;51.676;5.812;2023-12-20T02:11:49;51.13;47.99;54.54;;
58251;Laerm;51449;51.676;5.812;2023-12-20T02:14:11;51.24;47.56;55.35;;
58251;Laerm;51449;51.676;5.812;2023-12-20T02:16:33;49.82;47.70;54.23;;
58251;Laerm;51449;51.676;5.812;2023-12-20T02:18:55;49.52;47.73;52.92;;
58251;Laerm;51449;51.676;5.812;2023-12-20T02:21:17;49.40;47.65;53.25;;
58251;Laerm;51449;51.676;5.812;2023-12-20T02:23:39;52.00;47.65;62.00;;
58251;Laerm;51449;51.676;5.812;2023-12-20T02:26:00;49.40;47.69;58.85;;
58251;Laerm;51449;51.676;5.812;2023-12-20T02:28:23;50.67;47.57;58.15;;
58251;Laerm;51449;51.676;5.812;2023-12-20T02:30:46;50.33;47.57;59.49;;
58251;Laerm;51449;51.676;5.812;2023-12-20T02:33:12;51.76;47.57;67.05;;
58251;Laerm;51449;51.676;5.812;2023-12-20T02:35:34;50.10;47.80;56.84;;
58251;Laerm;51449;51.676;5.812;2023-12-20T02:37:56;50.33;47.70;59.60;;
58251;Laerm;51449;51.676;5.812;2023-12-20T02:40:17;50.45;47.65;61.10;;
58251;Laerm;51449;51.676;5.812;2023-12-20T02:42:40;50.38;47.84;61.26;;
58251;Laerm;51449;51.676;5.812;2023-12-20T02:45:02;52.95;47.44;65.41;;
58251;Laerm;51449;51.676;5.812;2023-12-20T02:47:24;61.86;47.67;69.36;;
58251;Laerm;51449;51.676;5.812;2023-12-20T02:49:47;64.07;48.14;69.05;;
58251;Laerm;51449;51.676;5.812;2023-12-20T02:52:09;63.67;48.09;69.21;;
58251;Laerm;51449;51.676;5.812;2023-12-20T02:54:30;62.25;48.04;69.47;;
58251;Laerm;51449;51.676;5.812;2023-12-20T02:56:52;51.64;47.76;66.10;;
58251;Laerm;51449;51.676;5.812;2023-12-20T02:59:14;49.05;47.43;53.27;;
58251;Laerm;51449;51.676;5.812;2023-12-20T03:01:43;58.47;47.75;67.31;;
58251;Laerm;51449;51.676;5.812;2023-12-20T03:04:05;63.65;48.46;67.71;;
58251;Laerm;51449;51.676;5.812;2023-12-20T03:06:27;63.37;48.57;67.62;;
58251;Laerm;51449;51.676;5.812;2023-12-20T03:08:49;62.85;48.13;67.49;;
58251;Laerm;51449;51.676;5.812;2023-12-20T03:11:11;61.70;48.22;66.79;;
58251;Laerm;51449;51.676;5.812;2023-12-20T03:13:33;53.69;47.79;66.84;;
58251;Laerm;51449;51.676;5.812;2023-12-20T03:15:54;49.80;47.87;52.73;;
58251;Laerm;51449;51.676;5.812;2023-12-20T03:18:16;49.47;47.47;52.65;;
58251;Laerm;51449;51.676;5.812;2023-12-20T03:20:38;49.14;47.71;51.26;;
58251;Laerm;51449;51.676;5.812;2023-12-20T03:23:00;49.05;47.41;54.05;;
58251;Laerm;51449;51.676;5.812;2023-12-20T03:25:22;49.26;47.50;55.32;;
58251;Laerm;51449;51.676;5.812;2023-12-20T03:27:44;49.96;47.61;55.06;;
58251;Laerm;51449;51.676;5.812;2023-12-20T03:30:07;51.06;47.63;54.73;;
58251;Laerm;51449;51.676;5.812;2023-12-20T03:32:29;49.65;47.75;55.66;;
58251;Laerm;51449;51.676;5.812;2023-12-20T03:34:50;48.99;47.50;51.17;;
58251;Laerm;51449;51.676;5.812;2023-12-20T03:37:12;48.84;47.25;52.01;;
58251;Laerm;51449;51.676;5.812;2023-12-20T03:39:34;48.87;47.59;51.55;;
58251;Laerm;51449;51.676;5.812;2023-12-20T03:41:56;49.47;47.51;55.44;;
58251;Laerm;51449;51.676;5.812;2023-12-20T03:44:18;49.23;47.47;51.57;;
58251;Laerm;51449;51.676;5.812;2023-12-20T03:46:40;49.32;47.46;56.55;;
58251;Laerm;51449;51.676;5.812;2023-12-20T03:49:01;48.95;47.54;50.98;;
58251;Laerm;51449;51.676;5.812;2023-12-20T03:51:25;48.97;47.52;51.25;;
58251;Laerm;51449;51.676;5.812;2023-12-20T03:53:47;49.02;47.57;52.11;;
58251;Laerm;51449;51.676;5.812;2023-12-20T03:56:09;49.18;47.46;52.68;;
58251;Laerm;51449;51.676;5.812;2023-12-20T03:58:31;49.14;47.65;52.78;;
58251;Laerm;51449;51.676;5.812;2023-12-20T04:00:53;50.95;47.41;67.29;;
58251;Laerm;51449;51.676;5.812;2023-12-20T04:03:14;50.50;47.55;65.19;;
58251;Laerm;51449;51.676;5.812;2023-12-20T04:05:36;49.73;47.68;64.90;;
58251;Laerm;51449;51.676;5.812;2023-12-20T04:08:01;49.09;47.60;51.33;;
58251;Laerm;51449;51.676;5.812;2023-12-20T04:10:23;49.18;47.77;59.16;;
58251;Laerm;51449;51.676;5.812;2023-12-20T04:12:45;49.30;47.57;64.08;;
58251;Laerm;51449;51.676;5.812;2023-12-20T04:15:07;49.05;47.70;62.26;;
58251;Laerm;51449;51.676;5.812;2023-12-20T04:17:31;49.03;47.51;51.40;;
58251;Laerm;51449;51.676;5.812;2023-12-20T04:19:53;49.03;47.41;51.23;;
58251;Laerm;51449;51.676;5.812;2023-12-20T04:22:16;49.07;47.38;51.63;;
58251;Laerm;51449;51.676;5.812;2023-12-20T04:24:38;49.09;47.50;51.15;;
58251;Laerm;51449;51.676;5.812;2023-12-20T04:27:01;49.04;47.59;51.38;;
58251;Laerm;51449;51.676;5.812;2023-12-20T04:29:23;49.03;47.39;51.36;;
58251;Laerm;51449;51.676;5.812;2023-12-20T04:31:45;49.02;47.52;51.10;;
58251;Laerm;51449;51.676;5.812;2023-12-20T04:34:07;49.04;47.71;51.69;;
58251;Laerm;51449;51.676;5.812;2023-12-20T04:36:30;49.07;47.36;52.66;;
58251;Laerm;51449;51.676;5.812;2023-12-20T04:38:53;49.03;47.49;53.51;;
58251;Laerm;51449;51.676;5.812;2023-12-20T04:41:15;49.14;47.50;51.57;;
58251;Laerm;51449;51.676;5.812;2023-12-20T04:43:37;49.25;47.78;51.27;;
58251;Laerm;51449;51.676;5.812;2023-12-20T04:45:59;49.24;47.93;51.79;;
58251;Laerm;51449;51.676;5.812;2023-12-20T04:48:21;49.21;47.90;51.09;;
58251;Laerm;51449;51.676;5.812;2023-12-20T04:50:43;49.49;48.01;51.84;;
58251;Laerm;51449;51.676;5.812;2023-12-20T04:53:05;49.53;48.15;51.60;;
58251;Laerm;51449;51.676;5.812;2023-12-20T04:55:27;49.50;48.05;51.45;;
58251;Laerm;51449;51.676;5.812;2023-12-20T04:57:49;49.53;48.03;51.67;;
58251;Laerm;51449;51.676;5.812;2023-12-20T05:00:11;49.53;48.14;51.67;;
58251;Laerm;51449;51.676;5.812;2023-12-20T05:02:35;49.53;47.87;51.49;;
58251;Laerm;51449;51.676;5.812;2023-12-20T05:04:57;49.52;48.15;51.48;;
58251;Laerm;51449;51.676;5.812;2023-12-20T05:07:19;49.56;47.71;51.33;;
58251;Laerm;51449;51.676;5.812;2023-12-20T05:09:41;49.59;48.10;52.13;;
58251;Laerm;51449;51.676;5.812;2023-12-20T05:12:03;49.58;48.16;51.48;;
58251;Laerm;51449;51.676;5.812;2023-12-20T05:14:25;49.60;48.26;51.68;;
58251;Laerm;51449;51.676;5.812;2023-12-20T05:16:47;49.61;48.31;51.27;;
58251;Laerm;51449;51.676;5.812;2023-12-20T05:19:09;49.61;48.25;51.67;;
58251;Laerm;51449;51.676;5.812;2023-12-20T05:21:30;49.59;47.96;51.59;;
58251;Laerm;51449;51.676;5.812;2023-12-20T05:23:53;49.60;48.28;53.88;;
58251;Laerm;51449;51.676;5.812;2023-12-20T05:26:14;49.58;48.29;51.68;;
58251;Laerm;51449;51.676;5.812;2023-12-20T05:28:36;49.55;47.68;51.66;;
58251;Laerm;51449;51.676;5.812;2023-12-20T05:30:58;49.53;48.01;51.58;;
58251;Laerm;51449;51.676;5.812;2023-12-20T05:33:20;49.48;47.86;51.91;;
58251;Laerm;51449;51.676;5.812;2023-12-20T05:35:42;49.55;47.81;61.67;;
58251;Laerm;51449;51.676;5.812;2023-12-20T05:38:04;49.31;47.90;52.75;;
58251;Laerm;51449;51.676;5.812;2023-12-20T05:40:25;49.25;47.55;51.44;;
58251;Laerm;51449;51.676;5.812;2023-12-20T05:42:47;49.25;47.60;51.25;;
58251;Laerm;51449;51.676;5.812;2023-12-20T05:45:09;49.29;47.62;51.53;;
58251;Laerm;51449;51.676;5.812;2023-12-20T05:47:32;49.07;47.61;51.27;;
58251;Laerm;51449;51.676;5.812;2023-12-20T05:49:54;48.84;47.51;51.02;;
58251;Laerm;51449;51.676;5.812;2023-12-20T05:52:16;48.86;47.52;51.43;;
58251;Laerm;51449;51.676;5.812;2023-12-20T05:54:38;48.85;47.54;50.91;;
58251;Laerm;51449;51.676;5.812;2023-12-20T05:56:59;48.88;47.31;52.82;;
58251;Laerm;51449;51.676;5.812;2023-12-20T05:59:22;48.90;47.63;51.44;;
58251;Laerm;51449;51.676;5.812;2023-12-20T06:01:44;48.89;47.52;51.06;;
58251;Laerm;51449;51.676;5.812;2023-12-20T06:04:05;48.80;47.17;51.20;;
58251;Laerm;51449;51.676;5.812;2023-12-20T06:06:27;48.77;47.41;51.05;;
58251;Laerm;51449;51.676;5.812;2023-12-20T06:08:49;48.80;47.45;51.10;;
58251;Laerm;51449;51.676;5.812;2023-12-20T06:11:11;48.86;47.44;53.60;;
58251;Laerm;51449;51.676;5.812;2023-12-20T06:13:33;48.90;47.46;51.39;;
58251;Laerm;51449;51.676;5.812;2023-12-20T06:15:55;49.01;47.43;51.14;;
58251;Laerm;51449;51.676;5.812;2023-12-20T06:18:17;49.13;47.73;52.59;;
58251;Laerm;51449;51.676;5.812;2023-12-20T06:20:39;49.18;47.70;51.39;;
58251;Laerm;51449;51.676;5.812;2023-12-20T06:23:01;49.18;47.77;51.83;;
58251;Laerm;51449;51.676;5.812;2023-12-20T06:25:23;49.20;47.77;52.36;;
58251;Laerm;51449;51.676;5.812;2023-12-20T06:27:44;49.23;47.84;52.02;;
58251;Laerm;51449;51.676;5.812;2023-12-20T06:30:07;49.25;47.53;51.82;;
58251;Laerm;51449;51.676;5.812;2023-12-20T06:32:30;48.79;46.81;51.42;;
58251;Laerm;51449;51.676;5.812;2023-12-20T06:34:52;49.30;47.67;51.66;;
58251;Laerm;51449;51.676;5.812;2023-12-20T06:37:14;49.31;47.72;51.72;;
58251;Laerm;51449;51.676;5.812;2023-12-20T06:39:36;49.02;47.46;51.58;;
58251;Laerm;51449;51.676;5.812;2023-12-20T06:41:58;49.33;47.83;51.70;;
58251;Laerm;51449;51.676;5.812;2023-12-20T06:44:20;49.44;47.97;51.81;;
58251;Laerm;51449;51.676;5.812;2023-12-20T06:46:43;49.42;48.14;51.67;;
58251;Laerm;51449;51.676;5.812;2023-12-20T06:49:04;49.39;47.95;51.66;;
58251;Laerm;51449;51.676;5.812;2023-12-20T06:51:27;49.63;48.00;51.46;;
58251;Laerm;51449;51.676;5.812;2023-12-20T06:53:49;49.95;48.25;59.71;;
58251;Laerm;51449;51.676;5.812;2023-12-20T06:56:11;49.82;48.29;60.63;;
58251;Laerm;51449;51.676;5.812;2023-12-20T06:58:39;49.68;48.08;51.88;;
58251;Laerm;51449;51.676;5.812;2023-12-20T07:01:00;49.77;48.18;52.00;;
58251;Laerm;51449;51.676;5.812;2023-12-20T07:03:22;49.81;48.28;51.63;;
58251;Laerm;51449;51.676;5.812;2023-12-20T07:05:44;49.80;47.99;52.17;;
58251;Laerm;51449;51.676;5.812;2023-12-20T07:08:06;50.89;47.95;56.43;;
58251;Laerm;51449;51.676;5.812;2023-12-20T07:10:28;49.04;47.53;51.44;;
58251;Laerm;51449;51.676;5.812;2023-12-20T07:12:50;49.05;47.59;53.07;;
58251;Laerm;51449;51.676;5.812;2023-12-20T07:15:13;48.96;47.64;51.07;;
58251;Laerm;51449;51.676;5.812;2023-12-20T07:17:35;49.22;47.64;52.00;;
58251;Laerm;51449;51.676;5.812;2023-12-20T07:19:56;49.72;48.24;51.61;;
58251;Laerm;51449;51.676;5.812;2023-12-20T07:22:18;49.69;48.21;53.14;;
58251;Laerm;51449;51.676;5.812;2023-12-20T07:24:40;49.54;47.74;52.52;;
58251;Laerm;51449;51.676;5.812;2023-12-20T07:27:02;49.76;48.19;53.98;;
58251;Laerm;51449;51.676;5.812;2023-12-20T07:29:24;49.78;48.28;54.03;;
58251;Laerm;51449;51.676;5.812;2023-12-20T07:31:46;49.57;48.01;53.25;;
58251;Laerm;51449;51.676;5.812;2023-12-20T07:34:08;49.38;47.87;56.02;;
58251;Laerm;51449;51.676;5.812;2023-12-20T07:36:30;49.50;47.87;51.60;;
58251;Laerm;51449;51.676;5.812;2023-12-20T07:38:52;49.53;48.06;53.94;;
58251;Laerm;51449;51.676;5.812;2023-12-20T07:41:13;49.57;47.66;53.57;;
58251;Laerm;51449;51.676;5.812;2023-12-20T07:43:37;49.54;47.82;53.99;;
58251;Laerm;51449;51.676;5.812;2023-12-20T07:46:07;49.19;47.90;53.63;;
58251;Laerm;51449;51.676;5.812;2023-12-20T07:48:29;49.37;47.78;51.84;;
58251;Laerm;51449;51.676;5.812;2023-12-20T07:50:51;49.13;47.89;52.80;;
58251;Laerm;51449;51.676;5.812;2023-12-20T07:53:14;49.21;47.76;52.33;;
58251;Laerm;51449;51.676;5.812;2023-12-20T07:55:36;49.29;47.67;52.64;;
58251;Laerm;51449;51.676;5.812;2023-12-20T07:57:58;50.19;48.49;52.06;;
58251;Laerm;51449;51.676;5.812;2023-12-20T08:00:20;50.35;48.71;52.26;;
58251;Laerm;51449;51.676;5.812;2023-12-20T08:02:42;50.41;48.81;52.24;;
58251;Laerm;51449;51.676;5.812;2023-12-20T08:05:04;50.43;48.81;52.50;;
58251;Laerm;51449;51.676;5.812;2023-12-20T08:07:26;49.45;47.81;51.41;;
58251;Laerm;51449;51.676;5.812;2023-12-20T08:09:48;49.58;48.10;58.43;;
58251;Laerm;51449;51.676;5.812;2023-12-20T08:12:09;49.52;47.86;58.72;;
58251;Laerm;51449;51.676;5.812;2023-12-20T08:14:32;49.53;47.77;58.10;;
58251;Laerm;51449;51.676;5.812;2023-12-20T08:16:54;51.16;47.94;59.03;;
58251;Laerm;51449;51.676;5.812;2023-12-20T08:19:16;50.02;47.90;55.69;;
58251;Laerm;51449;51.676;5.812;2023-12-20T08:21:38;50.23;47.70;54.75;;
58251;Laerm;51449;51.676;5.812;2023-12-20T08:24:00;52.64;48.20;61.86;;
58251;Laerm;51449;51.676;5.812;2023-12-20T08:26:22;50.70;48.05;53.29;;
58251;Laerm;51449;51.676;5.812;2023-12-20T08:28:46;50.44;48.44;54.60;;
58251;Laerm;51449;51.676;5.812;2023-12-20T08:31:14;50.34;48.47;53.52;;
58251;Laerm;51449;51.676;5.812;2023-12-20T08:33:36;50.77;48.61;53.15;;
58251;Laerm;51449;51.676;5.812;2023-12-20T08:35:58;51.39;49.23;57.98;;
58251;Laerm;51449;51.676;5.812;2023-12-20T08:38:20;50.87;48.81;53.83;;
58251;Laerm;51449;51.676;5.812;2023-12-20T08:40:42;50.91;48.68;53.75;;
58251;Laerm;51449;51.676;5.812;2023-12-20T08:43:04;50.82;48.70;54.32;;
58251;Laerm;51449;51.676;5.812;2023-12-20T08:45:25;50.99;48.84;53.75;;
58251;Laerm;51449;51.676;5.812;2023-12-20T08:47:47;51.43;49.25;54.76;;
58251;Laerm;51449;51.676;5.812;2023-12-20T08:50:10;51.28;48.83;54.34;;
58251;Laerm;51449;51.676;5.812;2023-12-20T08:52:32;51.12;49.35;54.48;;
58251;Laerm;51449;51.676;5.812;2023-12-20T08:54:55;51.40;49.07;57.56;;
58251;Laerm;51449;51.676;5.812;2023-12-20T08:57:19;51.53;48.95;55.17;;
58251;Laerm;51449;51.676;5.812;2023-12-20T08:59:42;51.51;48.98;54.33;;
58251;Laerm;51449;51.676;5.812;2023-12-20T09:02:04;51.19;49.36;54.71;;
58251;Laerm;51449;51.676;5.812;2023-12-20T09:04:26;50.92;48.97;54.57;;
58251;Laerm;51449;51.676;5.812;2023-12-20T09:06:48;50.75;48.71;56.07;;
58251;Laerm;51449;51.676;5.812;2023-12-20T09:09:10;50.97;48.34;55.88;;
58251;Laerm;51449;51.676;5.812;2023-12-20T09:11:35;51.83;48.89;56.14;;
58251;Laerm;51449;51.676;5.812;2023-12-20T09:13:57;52.26;49.86;56.68;;
58251;Laerm;51449;51.676;5.812;2023-12-20T09:16:18;52.70;48.83;57.67;;
58251;Laerm;51449;51.676;5.812;2023-12-20T09:18:41;52.28;50.11;62.41;;
58251;Laerm;51449;51.676;5.812;2023-12-20T09:21:03;54.10;48.68;63.20;;
58251;Laerm;51449;51.676;5.812;2023-12-20T09:23:24;53.43;48.42;63.96;;
58251;Laerm;51449;51.676;5.812;2023-12-20T09:25:47;51.77;48.23;56.25;;
58251;Laerm;51449;51.676;5.812;2023-12-20T09:28:09;51.28;48.47;55.04;;
58251;Laerm;51449;51.676;5.812;2023-12-20T09:30:32;51.74;47.57;65.84;;
58251;Laerm;51449;51.676;5.812;2023-12-20T09:32:55;49.09;47.26;55.24;;
58251;Laerm;51449;51.676;5.812;2023-12-20T09:35:17;49.08;47.52;54.72;;
58251;Laerm;51449;51.676;5.812;2023-12-20T09:37:39;49.50;47.30;56.87;;
58251;Laerm;51449;51.676;5.812;2023-12-20T09:40:07;50.61;47.68;58.80;;
58251;Laerm;51449;51.676;5.812;2023-12-20T09:42:47;52.93;47.52;59.50;;
58251;Laerm;51449;51.676;5.812;2023-12-20T09:45:10;53.74;48.95;60.44;;
58251;Laerm;51449;51.676;5.812;2023-12-20T09:47:35;52.58;47.85;59.49;;
58251;Laerm;51449;51.676;5.812;2023-12-20T09:49:57;50.09;47.68;57.54;;
58251;Laerm;51449;51.676;5.812;2023-12-20T09:52:20;49.26;47.59;56.03;;
58251;Laerm;51449;51.676;5.812;2023-12-20T09:54:45;49.28;47.69;62.09;;
58251;Laerm;51449;51.676;5.812;2023-12-20T09:57:09;49.18;47.34;53.18;;
58251;Laerm;51449;51.676;5.812;2023-12-20T09:59:32;49.21;47.49;65.04;;
58251;Laerm;51449;51.676;5.812;2023-12-20T10:01:55;55.59;47.47;68.17;;
58251;Laerm;51449;51.676;5.812;2023-12-20T10:04:19;56.13;47.33;67.50;;
58251;Laerm;51449;51.676;5.812;2023-12-20T10:06:51;51.92;47.37;65.76;;
58251;Laerm;51449;51.676;5.812;2023-12-20T10:09:14;51.19;47.45;60.91;;
58251;Laerm;51449;51.676;5.812;2023-12-20T10:11:37;49.19;47.29;56.89;;
58251;Laerm;51449;51.676;5.812;2023-12-20T10:13:59;50.25;47.28;57.06;;
58251;Laerm;51449;51.676;5.812;2023-12-20T10:16:25;51.55;47.53;74.40;;
58251;Laerm;51449;51.676;5.812;2023-12-20T10:18:47;49.79;48.13;62.17;;
58251;Laerm;51449;51.676;5.812;2023-12-20T10:21:09;52.35;47.84;59.61;;
58251;Laerm;51449;51.676;5.812;2023-12-20T10:23:32;58.36;47.86;65.32;;
58251;Laerm;51449;51.676;5.812;2023-12-20T10:26:00;61.08;50.51;65.15;;
58251;Laerm;51449;51.676;5.812;2023-12-20T10:28:22;60.54;53.80;64.63;;
58251;Laerm;51449;51.676;5.812;2023-12-20T10:30:48;58.75;53.29;60.56;;
58251;Laerm;51449;51.676;5.812;2023-12-20T10:33:10;56.55;53.87;59.57;;
58251;Laerm;51449;51.676;5.812;2023-12-20T10:35:33;57.05;53.48;59.20;;
58251;Laerm;51449;51.676;5.812;2023-12-20T10:37:56;56.43;53.09;59.17;;
58251;Laerm;51449;51.676;5.812;2023-12-20T10:40:18;55.95;51.27;59.12;;
58251;Laerm;51449;51.676;5.812;2023-12-20T10:42:40;57.22;51.57;61.05;;
58251;Laerm;51449;51.676;5.812;2023-12-20T10:45:03;57.60;52.95;61.80;;
58251;Laerm;51449;51.676;5.812;2023-12-20T10:47:25;56.32;50.94;60.45;;
58251;Laerm;51449;51.676;5.812;2023-12-20T10:49:52;54.90;49.36;59.49;;
58251;Laerm;51449;51.676;5.812;2023-12-20T10:52:16;53.67;49.31;58.21;;
58251;Laerm;51449;51.676;5.812;2023-12-20T10:54:41;55.23;49.11;60.96;;
58251;Laerm;51449;51.676;5.812;2023-12-20T10:57:06;52.79;48.12;59.32;;
58251;Laerm;51449;51.676;5.812;2023-12-20T10:59:29;53.48;48.43;57.45;;
58251;Laerm;51449;51.676;5.812;2023-12-20T11:01:55;50.34;47.48;57.07;;
58251;Laerm;51449;51.676;5.812;2023-12-20T11:04:31;50.27;47.69;54.46;;
58251;Laerm;51449;51.676;5.812;2023-12-20T11:07:08;51.16;47.93;55.51;;
58251;Laerm;51449;51.676;5.812;2023-12-20T11:09:45;50.49;47.74;55.64;;
58251;Laerm;51449;51.676;5.812;2023-12-20T11:12:17;49.12;47.58;54.07;;
58251;Laerm;51449;51.676;5.812;2023-12-20T11:14:50;49.08;47.45;52.58;;
58251;Laerm;51449;51.676;5.812;2023-12-20T11:17:13;49.13;47.44;51.97;;
58251;Laerm;51449;51.676;5.812;2023-12-20T11:22:15;49.13;47.34;53.50;;
58251;Laerm;51449;51.676;5.812;2023-12-20T11:24:44;49.93;47.23;54.51;;
58251;Laerm;51449;51.676;5.812;2023-12-20T11:27:06;48.88;47.42;51.93;;
58251;Laerm;51449;51.676;5.812;2023-12-20T11:29:35;49.78;47.15;54.55;;
58251;Laerm;51449;51.676;5.812;2023-12-20T11:32:00;51.39;49.57;55.03;;
58251;Laerm;51449;51.676;5.812;2023-12-20T11:34:27;52.44;49.95;56.13;;
58251;Laerm;51449;51.676;5.812;2023-12-20T11:36:58;53.70;49.08;58.09;;
58251;Laerm;51449;51.676;5.812;2023-12-20T11:39:21;52.91;49.52;56.71;;
58251;Laerm;51449;51.676;5.812;2023-12-20T11:41:44;52.28;49.01;56.42;;
58251;Laerm;51449;51.676;5.812;2023-12-20T11:44:08;52.98;50.03;56.81;;
58251;Laerm;51449;51.676;5.812;2023-12-20T11:46:31;51.81;48.60;55.99;;
58251;Laerm;51449;51.676;5.812;2023-12-20T11:48:54;50.90;48.57;60.47;;
58251;Laerm;51449;51.676;5.812;2023-12-20T11:51:16;52.78;49.28;61.97;;
58251;Laerm;51449;51.676;5.812;2023-12-20T11:53:40;53.63;48.43;61.90;;
58251;Laerm;51449;51.676;5.812;2023-12-20T11:56:06;52.99;49.26;59.81;;
58251;Laerm;51449;51.676;5.812;2023-12-20T11:58:28;57.19;50.56;62.90;;
58251;Laerm;51449;51.676;5.812;2023-12-20T12:00:50;58.07;53.38;63.57;;
58251;Laerm;51449;51.676;5.812;2023-12-20T12:03:15;59.13;51.00;65.81;;
58251;Laerm;51449;51.676;5.812;2023-12-20T12:05:37;58.04;48.73;66.79;;
58251;Laerm;51449;51.676;5.812;2023-12-20T12:07:59;55.36;48.45;73.24;;
58251;Laerm;51449;51.676;5.812;2023-12-20T12:10:21;54.65;48.49;66.20;;
58251;Laerm;51449;51.676;5.812;2023-12-20T12:12:44;52.80;47.70;63.23;;
58251;Laerm;51449;51.676;5.812;2023-12-20T12:15:07;52.10;48.30;67.41;;
58251;Laerm;51449;51.676;5.812;2023-12-20T12:17:30;54.88;47.77;69.98;;
58251;Laerm;51449;51.676;5.812;2023-12-20T12:20:03;54.63;47.79;68.83;;
58251;Laerm;51449;51.676;5.812;2023-12-20T12:22:26;50.14;47.72;57.55;;
58251;Laerm;51449;51.676;5.812;2023-12-20T12:24:49;49.88;48.04;52.81;;
58251;Laerm;51449;51.676;5.812;2023-12-20T12:27:13;49.48;47.78;52.26;;
58251;Laerm;51449;51.676;5.812;2023-12-20T12:29:36;51.60;47.96;56.63;;
58251;Laerm;51449;51.676;5.812;2023-12-20T12:31:59;50.89;47.73;57.43;;
58251;Laerm;51449;51.676;5.812;2023-12-20T12:34:21;50.50;47.87;57.10;;
58251;Laerm;51449;51.676;5.812;2023-12-20T12:36:43;50.00;48.00;56.47;;
58251;Laerm;51449;51.676;5.812;2023-12-20T12:39:08;50.57;47.90;57.16;;
58251;Laerm;51449;51.676;5.812;2023-12-20T12:41:31;51.24;47.99;58.69;;
58251;Laerm;51449;51.676;5.812;2023-12-20T12:43:53;53.75;48.12;59.68;;
58251;Laerm;51449;51.676;5.812;2023-12-20T12:46:19;52.11;48.29;60.34;;
58251;Laerm;51449;51.676;5.812;2023-12-20T12:48:41;53.78;48.46;60.37;;
58251;Laerm;51449;51.676;5.812;2023-12-20T12:51:07;52.06;48.11;61.23;;
58251;Laerm;51449;51.676;5.812;2023-12-20T12:53:34;51.96;48.06;58.89;;
58251;Laerm;51449;51.676;5.812;2023-12-20T12:55:55;51.42;48.17;59.56;;
58251;Laerm;51449;51.676;5.812;2023-12-20T12:58:18;51.53;48.63;56.57;;
58251;Laerm;51449;51.676;5.812;2023-12-20T13:00:40;53.67;48.60;59.05;;
58251;Laerm;51449;51.676;5.812;2023-12-20T13:03:02;52.07;48.48;61.39;;
58251;Laerm;51449;51.676;5.812;2023-12-20T13:05:24;50.64;48.41;60.01;;
58251;Laerm;51449;51.676;5.812;2023-12-20T13:07:46;53.46;48.67;60.84;;
58251;Laerm;51449;51.676;5.812;2023-12-20T13:10:10;53.02;48.50;60.87;;
58251;Laerm;51449;51.676;5.812;2023-12-20T13:12:32;54.70;48.46;62.05;;
58251;Laerm;51449;51.676;5.812;2023-12-20T13:14:54;53.46;48.40;62.26;;
58251;Laerm;51449;51.676;5.812;2023-12-20T13:17:16;54.78;48.33;62.21;;
58251;Laerm;51449;51.676;5.812;2023-12-20T13:19:38;54.17;48.33;62.06;;
58251;Laerm;51449;51.676;5.812;2023-12-20T13:22:00;52.39;48.36;61.38;;